Decoded Metar for MKJS (MONTEGO BAY in JAMAICA) (IATA:MBJ) | Meteo·Mobile Aviation Weather
aviador You're here:

MKJS Decoded Metar

MONTEGO BAY in JAMAICA
Report Time2018-08-21 10:00:00
UTC Time2018-08-21 10:36:03
Flight Rules vfr VFR
Wind120° at 06 kt
W.Decomp.*RWY 07: 3.4 kt HW 5.0 kt RCW
W.Rank120° ranks 11
Current wind is above 120° avg. (4.9)
Visibility9999 m
Phenomena:N/A
Clouds:Few 022 Hf
Expected CloudBase > 1,600 ft AGL from Temp-Dew spread
CeilingNone
Temp28°C (ISA +13)
Dew Point24°C (79% RH)
Heat Index31.9°C
QNH1014 hPa
Density Alt1,857 ft
Elevation3 ft
Report Wrong Elevation
Raw Report
METAR MKJS 211000Z 12006KT 9999 FEW022 28/24 Q1014=

Extra information for MKJS:More info

Metar Taf Metar & Taf Last 4 Metars F.Rules Stats Wind Profile Meteogram Temp Stats Airport Information Weather charts Add Link Nearby VenuesMetar ALERT Operation Metar Decoded Social comments